Tiempo atmosférico en la estación meteorológica de Almudébar, Huesca (390 m.)

Fecha
DESCASC
Temp. máxima en grados centígrados (hora)
DESCASC
Temp. mínima en grados centígrados (hora)
DESCASC
Temp. media en grados centígrados
DESCASC
Racha de viento máxima en m/sg (hora)
DESCASC
Velocidad máxima media en intervalos de 10 minutos(hora)
DESCASC
Precipitaciones diarias en mm
DESCASC
Precipitaciones de 00:00 a 06:00 en mm
DESCASC
Precipitaciones de 06:00 a 12:00 en mm
DESCASC
Precipitaciones de 12:00 a 18:00 en mm
DESCASC
Precipitaciones de 18:00 a 24:00 en mm
DESCASC

Gráficas

Temp. máximas Temp. mínimas Temp. medias Precipitaciones Rachas de viento máximas Velocidades máximas media en intervalos de 10 minutos

Datos horarios

Fecha y hora oficial Temperatura (ºC) Velocidad del viento (km/h) Dirección del viento Racha (km/h) Dirección de racha Precipitación (mm) Presión (hPa) Tendencia (hPa) Humedad (%)
2017-09-24 23:00:00 16.7 0 Calma 6 Nordeste 0 -- -- 78
2017-09-24 22:00:00 18 2 Norte 9 Nordeste 0 -- -- 74
2017-09-24 21:00:00 20.5 7 Nordeste 10 Sudeste 0 -- -- 64
2017-09-24 20:00:00 22.8 3 Este 5 Sudeste 0 -- -- 65
2017-09-24 19:00:00 27.3 3 Sudeste 7 Sur 0 -- -- 55
2017-09-24 18:00:00 29.2 3 Sudeste 10 Oeste 0 -- -- 37
2017-09-24 17:00:00 28.8 5 Sudoeste 13 Sudoeste 0 -- -- 37
2017-09-24 16:00:00 28.1 6 Sudoeste 17 Oeste 0 -- -- 45
2017-09-24 15:00:00 26.6 6 Oeste 13 Sudoeste 0 -- -- 50
2017-09-24 14:00:00 24.8 6 Oeste 13 Oeste 0 -- -- 57
2017-09-24 13:00:00 23.2 5 Oeste 12 Sudoeste 0 -- -- 66
2017-09-24 12:00:00 21.9 4 Sur 8 Sudeste 0 -- -- 73
2017-09-24 11:00:00 19.8 2 Sudeste 6 Sur 0 -- -- 82
2017-09-24 10:00:00 15.6 0 Calma 3 Sudoeste 0 -- -- 94
2017-09-24 09:00:00 12.6 0 Calma 8 Nordeste 0 -- -- 94
2017-09-24 08:00:00 10.7 4 Nordeste 5 Nordeste 0 -- -- 92
2017-09-24 07:00:00 10.8 0 Calma 6 Nordeste 0 -- -- 89
2017-09-24 06:00:00 11.9 5 Nordeste 9 Este 0 -- -- 91
2017-09-24 05:00:00 12 0 Calma 10 Este 0 -- -- 88
2017-09-24 04:00:00 13.5 6 Nordeste 12 Nordeste 0 -- -- 90
2017-09-24 03:00:00 12.8 4 Nordeste 8 Nordeste 0 -- -- 91
2017-09-24 02:00:00 13.1 0 Calma 8 Nordeste 0 -- -- 87
2017-09-24 01:00:00 14 3 Este 5 Nordeste 0 -- -- 86
2017-09-24 00:00:00 14.8 3 Nordeste 5 Nordeste 0 -- -- 86
2017-09-23 23:00:00 16.4 3 Nordeste 9 Nordeste 0 -- -- 82
2017-09-23 22:00:00 17.6 4 Nordeste 9 Este 0 -- -- 78
2017-09-23 21:00:00 19.5 8 Nordeste 9 Nordeste 0 -- -- 76
2017-09-23 20:00:00 21.8 6 Este 12 Sudeste 0 -- -- 69
2017-09-23 19:00:00 24.1 7 Sudeste 14 Sudeste 0 -- -- 61
2017-09-23 18:00:00 25.1 6 Sudeste 13 Sudeste 0 -- -- 54
2017-09-23 17:00:00 25 5 Sur 12 Este 0 -- -- 50
2017-09-23 16:00:00 24.4 5 Sur 12 Sudeste 0 -- -- 54
2017-09-23 15:00:00 23.2 4 Este 15 Este 0 -- -- 59
2017-09-23 14:00:00 22.2 8 Sudeste 19 Sudeste 0 -- -- 66
2017-09-23 13:00:00 21.1 10 Sudeste 18 Sudeste 0 -- -- 69
2017-09-23 12:00:00 19.8 10 Sudeste 16 Sudeste 0 -- -- 73
2017-09-23 11:00:00 18 9 Sudeste 14 Este 0 -- -- 79
2017-09-23 10:00:00 14.9 4 Sudeste 7 Sudeste 0 -- -- 95
2017-09-23 09:00:00 11.2 0 Calma 7 Sudoeste 0 -- -- 96
2017-09-23 08:00:00 9.5 0 Calma 6 Nordeste 0 -- -- 93
2017-09-23 07:00:00 9.8 4 Nordeste 5 Nordeste 0 -- -- 92
2017-09-23 06:00:00 10.2 3 Norte 3 Norte 0 -- -- 91
2017-09-23 05:00:00 11.3 0 Calma 4 Noroeste 0 -- -- 91
2017-09-23 04:00:00 12.4 3 Norte 6 Nordeste 0 -- -- 93
2017-09-23 03:00:00 13.1 3 Sudeste 9 Nordeste 0 -- -- 91
2017-09-23 02:00:00 14.1 6 Nordeste 9 Este 0 -- -- 92
2017-09-23 01:00:00 14.6 5 Este 13 Este 0 -- -- 92
2017-09-23 00:00:00 14.3 8 Nordeste 12 Nordeste 0 -- -- 92
2017-09-22 23:00:00 14.2 5 Nordeste 13 Sur 0 -- -- 90
2017-09-22 22:00:00 15 6 Nordeste 9 Nordeste 0 -- -- 88
2017-09-22 21:00:00 16.1 6 Nordeste 8 Nordeste 0 -- -- 85
2017-09-22 20:00:00 17.6 4 Este 9 Este 0 -- -- 80
2017-09-22 19:00:00 19.3 7 Sudeste 11 Sudeste 0 -- -- 74
2017-09-22 18:00:00 20 3 Sudeste 16 Sudeste 0 -- -- 69
2017-09-22 17:00:00 20.6 9 Sudeste 17 Sudeste 0 -- -- 66
2017-09-22 16:00:00 20.5 13 Sudeste 21 Sur 0 -- -- 69
2017-09-22 15:00:00 18.8 14 Este 28 Nordeste 0 -- -- 75
2017-09-22 14:00:00 17.7 13 Nordeste 24 Norte 0.2 -- -- 84
2017-09-22 13:00:00 15.4 11 Noroeste 18 Noroeste 2.4 -- -- 92
2017-09-22 12:00:00 16 5 Oeste 12 Norte 3.6 -- -- 92
2017-09-22 11:00:00 16.7 4 Sudeste 19 Sur 1.8 -- -- 90
2017-09-22 10:00:00 17 5 Sudeste 42 Sudoeste 1.2 -- -- 90
2017-09-22 09:00:00 15.7 14 Nordeste 23 Nordeste 2.8 -- -- 93
2017-09-22 08:00:00 13.6 6 Noroeste 13 Oeste 0 -- -- 92
2017-09-22 07:00:00 14.2 0 Calma 8 Nordeste 0 -- -- 86
2017-09-22 06:00:00 14.8 4 Norte 8 Norte 0 -- -- 90
2017-09-22 05:00:00 13.9 4 Noroeste 5 Noroeste 0 -- -- 89
2017-09-22 04:00:00 14 2 Oeste 9 Oeste 0 -- -- 87
2017-09-22 03:00:00 15.7 0 Calma 13 Nordeste 0 -- -- 82
2017-09-22 02:00:00 16.3 9 Este 21 Nordeste 0 -- -- 81
2017-09-22 01:00:00 16.4 13 Nordeste 19 Este 0 -- -- 73
2017-09-22 00:00:00 14.6 4 Nordeste 5 Este 0 -- -- 76
2017-09-21 23:00:00 15.9 4 Oeste 12 Nordeste 0 -- -- 71
2017-09-21 22:00:00 17.6 7 Nordeste 13 Nordeste 0 -- -- 63
2017-09-21 21:00:00 18.8 9 Este 12 Este 0 -- -- 59
2017-09-21 20:00:00 20.3 5 Sudeste 11 Este 0 -- -- 59
2017-09-21 19:00:00 24.5 8 Este 15 Sudeste 0 -- -- 45
2017-09-21 18:00:00 25.8 8 Sudeste 15 Sudeste 0 -- -- 40
2017-09-21 17:00:00 25.6 8 Sudeste 19 Sudeste 0 -- -- 38
2017-09-21 16:00:00 25.1 11 Sudeste 22 Sudeste 0 -- -- 36
2017-09-21 15:00:00 24.3 13 Sudeste 22 Sudeste 0 -- -- 40
2017-09-21 14:00:00 23.2 14 Sudeste 24 Este 0 -- -- 48
2017-09-21 13:00:00 22 14 Sudeste 25 Sudeste 0 -- -- 57
2017-09-21 12:00:00 20.8 13 Sudeste 20 Sudeste 0 -- -- 61
2017-09-21 11:00:00 17.7 3 Sur 6 Sudeste 0 -- -- 61
2017-09-21 10:00:00 13.9 2 Sudoeste 4 Sudoeste 0 -- -- 74
2017-09-21 09:00:00 9.4 0 Calma 6 Nordeste 0 -- -- 86
2017-09-21 08:00:00 7.5 3 Nordeste 6 Nordeste 0 -- -- 81
2017-09-21 07:00:00 7.8 3 Nordeste 5 Nordeste 0 -- -- 79
2017-09-21 06:00:00 9.5 3 Sudeste 10 Nordeste 0 -- -- 74
2017-09-21 05:00:00 10.9 6 Este 19 Este 0 -- -- 70
2017-09-21 04:00:00 11.6 13 Nordeste 18 Nordeste 0 -- -- 64
2017-09-21 03:00:00 10 7 Este 15 Nordeste 0 -- -- 72
2017-09-21 02:00:00 11.8 10 Nordeste 14 Nordeste 0 -- -- 63
2017-09-21 01:00:00 11.7 5 Este 12 Nordeste 0 -- -- 68
2017-09-21 00:00:00 13.4 9 Nordeste 15 Nordeste 0 -- -- 58
2017-09-20 23:00:00 14.2 11 Nordeste 17 Nordeste 0 -- -- 59
2017-09-20 22:00:00 15.4 9 Este 13 Este 0 -- -- 57
2017-09-20 21:00:00 16.1 8 Este 12 Este 0 -- -- 58
2017-09-20 20:00:00 20.3 9 Este 12 Este 0 -- -- 47
2017-09-20 19:00:00 24.3 3 Sur 6 Sur 0 -- -- 39
2017-09-20 18:00:00 24.3 4 Sur 10 Sudeste 0 -- -- 27
2017-09-20 17:00:00 24.2 6 Sur 14 Oeste 0 -- -- 27
2017-09-20 16:00:00 23.7 6 Sudoeste 13 Oeste 0 -- -- 28
2017-09-20 15:00:00 22.2 4 Sudoeste 14 Sudoeste 0 -- -- 28
2017-09-20 14:00:00 21.2 5 Sudoeste 18 Sur 0 -- -- 33
2017-09-20 13:00:00 19.2 6 Sudoeste 14 Sudoeste 1.2 -- -- 42
2017-09-20 12:00:00 17.1 7 Sudoeste 13 Sudoeste 0 -- -- 51
2017-09-20 11:00:00 14.1 5 Sudoeste 11 Noroeste 0 -- -- 61
2017-09-20 10:00:00 11 4 Noroeste 9 Noroeste 0 -- -- 74
2017-09-20 09:00:00 7.6 3 Noroeste 4 Noroeste 0 -- -- 89
2017-09-20 08:00:00 5.3 4 Noroeste 8 Noroeste 0 -- -- 85
2017-09-20 07:00:00 5.9 7 Noroeste 9 Noroeste 0 -- -- 87
2017-09-20 06:00:00 5.6 4 Noroeste 5 Oeste 0 -- -- 85
2017-09-20 05:00:00 6.6 3 Noroeste 8 Oeste 0 -- -- 81
2017-09-20 04:00:00 8.2 3 Oeste 8 Oeste 0 -- -- 79
2017-09-20 03:00:00 9.2 6 Noroeste 13 Oeste 0 -- -- 74
2017-09-20 02:00:00 10.2 10 Oeste 21 Sudoeste 0 -- -- 72
2017-09-20 01:00:00 11.1 12 Oeste 29 Sudoeste 0 -- -- 71
2017-09-20 00:00:00 12 5 Sudoeste 26 Noroeste 0 -- -- 66
2017-09-19 23:00:00 13.2 18 Oeste 29 Oeste 0 -- -- 60
2017-09-19 22:00:00 14.3 18 Oeste 35 Oeste 0 -- -- 55
2017-09-19 21:00:00 15.7 26 Noroeste 50 Noroeste 0 -- -- 50
2017-09-19 20:00:00 17.3 32 Noroeste 49 Oeste 0 -- -- 45
2017-09-19 19:00:00 19.5 24 Oeste 46 Oeste 0 -- -- 41
2017-09-19 18:00:00 21 29 Oeste 48 Oeste 0 -- -- 37
2017-09-19 17:00:00 21.9 29 Oeste 45 Oeste 0 -- -- 34
2017-09-19 16:00:00 21.5 25 Oeste 49 Oeste 0 -- -- 38
2017-09-19 15:00:00 21.6 24 Oeste 44 Oeste 0 -- -- 38
2017-09-19 14:00:00 21 26 Oeste 50 Oeste 0 -- -- 40
2017-09-19 13:00:00 19.7 26 Oeste 45 Oeste 0 -- -- 42
2017-09-19 12:00:00 18.1 26 Oeste 45 Noroeste 0 -- -- 46
2017-09-19 11:00:00 16.4 22 Oeste 50 Oeste 0 -- -- 52
2017-09-19 10:00:00 14 27 Oeste 43 Oeste 0 -- -- 67
2017-09-19 09:00:00 11.5 19 Oeste 35 Oeste 0 -- -- 76
2017-09-19 08:00:00 10 12 Oeste 27 Oeste 0 -- -- 78
2017-09-19 07:00:00 10.3 10 Noroeste 26 Noroeste 0 -- -- 80
2017-09-19 06:00:00 11.3 19 Noroeste 33 Oeste 0 -- -- 77
2017-09-19 05:00:00 10.9 19 Oeste 31 Oeste 0 -- -- 82
2017-09-19 04:00:00 11.9 19 Noroeste 33 Noroeste 0 -- -- 77
2017-09-19 03:00:00 12 17 Oeste 28 Oeste 0 -- -- 80
2017-09-19 02:00:00 11.8 18 Oeste 30 Oeste 0 -- -- 86
2017-09-19 01:00:00 12.4 15 Oeste 24 Oeste 0 -- -- 85
2017-09-19 00:00:00 13.2 9 Noroeste 19 Noroeste 0 -- -- 79
2017-09-18 23:00:00 14.2 11 Oeste 27 Oeste 0 -- -- 75
2017-09-18 22:00:00 15.4 14 Oeste 24 Oeste 0 -- -- 70
2017-09-18 21:00:00 16.1 5 Oeste 16 Oeste 0 -- -- 68
2017-09-18 20:00:00 17.8 12 Oeste 37 Noroeste 0 -- -- 61
2017-09-18 19:00:00 19.8 24 Noroeste 42 Noroeste 0 -- -- 54
2017-09-18 18:00:00 21.2 19 Noroeste 39 Noroeste 0 -- -- 51
2017-09-18 17:00:00 20.8 22 Noroeste 37 Oeste 0 -- -- 52
2017-09-18 16:00:00 21.1 22 Noroeste 40 Noroeste 0 -- -- 50
2017-09-18 15:00:00 19.8 19 Noroeste 32 Oeste 0 -- -- 54
2017-09-18 14:00:00 20.1 15 Oeste 32 Oeste 0 -- -- 58
2017-09-18 13:00:00 18.9 13 Oeste 25 Sudoeste 0 -- -- 58
2017-09-18 12:00:00 17.5 10 Oeste 19 Oeste 0 -- -- 67
2017-09-18 11:00:00 14.8 6 Sudoeste 13 Sudoeste 0 -- -- 84
2017-09-18 10:00:00 13.4 5 Oeste 8 Oeste 0 -- -- 91
2017-09-18 09:00:00 11.6 4 Este 14 Oeste 2.2 -- -- 89
2017-09-18 08:00:00 11.8 9 Oeste 18 Oeste 0 -- -- 83
2017-09-18 07:00:00 11.1 3 Oeste 10 Oeste 0 -- -- 84
2017-09-18 06:00:00 11 4 Noroeste 8 Oeste 0 -- -- 83
2017-09-18 05:00:00 10.5 6 Oeste 8 Oeste 0 -- -- 82
2017-09-18 04:00:00 10 6 Noroeste 9 Noroeste 0 -- -- 82
2017-09-18 03:00:00 10.2 3 Noroeste 4 Norte 0 -- -- 81
2017-09-18 02:00:00 10.6 0 Calma 4 Este 0 -- -- 79
2017-09-18 01:00:00 12.6 0 Calma 5 Sudeste 0 -- -- 77
2017-09-18 00:00:00 14.5 0 Calma 10 Norte 0 -- -- 75
2017-09-17 23:00:00 15 3 Noroeste 4 Noroeste 0 -- -- 75
2017-09-17 22:00:00 15.5 0 Calma 5 Oeste 0 -- -- 72
2017-09-17 21:00:00 16.6 4 Oeste 6 Sudoeste 0 -- -- 60
2017-09-17 20:00:00 18 4 Oeste 13 Sudoeste 0 -- -- 55
2017-09-17 19:00:00 19.5 10 Oeste 19 Oeste 0 -- -- 42
2017-09-17 18:00:00 21.5 9 Oeste 18 Oeste 0 -- -- 38
2017-09-17 17:00:00 21.9 10 Noroeste 23 Oeste 0 -- -- 37
2017-09-17 16:00:00 21.5 10 Oeste 26 Noroeste 0 -- -- 36
2017-09-17 15:00:00 20.4 10 Oeste 19 Sudoeste 0 -- -- 38
2017-09-17 14:00:00 19.2 7 Sur 19 Sudoeste 0 -- -- 46
2017-09-17 13:00:00 18.3 9 Sudoeste 18 Sudoeste 0 -- -- 48
2017-09-17 12:00:00 16.7 5 Sudoeste 18 Sudoeste 0 -- -- 55
2017-09-17 11:00:00 14.3 8 Oeste 15 Sudoeste 0 -- -- 64
2017-09-17 10:00:00 11.3 10 Sudoeste 16 Sudoeste 0 -- -- 74
2017-09-17 09:00:00 8.2 4 Noroeste 6 Oeste 0 -- -- 89
2017-09-17 08:00:00 5.6 3 Oeste 5 Oeste 0 -- -- 88
2017-09-17 07:00:00 6 4 Oeste 6 Oeste 0 -- -- 87
2017-09-17 06:00:00 6.9 2 Noroeste 12 Oeste 0 -- -- 84
2017-09-17 05:00:00 7.1 8 Noroeste 12 Oeste 0 -- -- 85
2017-09-17 04:00:00 7.2 5 Noroeste 10 Noroeste 0 -- -- 85
2017-09-17 03:00:00 8.3 7 Noroeste 20 Noroeste 0 -- -- 80
2017-09-17 02:00:00 8.5 10 Noroeste 18 Sudoeste 0 -- -- 79
2017-09-17 01:00:00 8.6 6 Oeste 13 Oeste 0 -- -- 78
2017-09-17 00:00:00 9.3 6 Noroeste 18 Noroeste 0 -- -- 75
2017-09-16 23:00:00 10 9 Noroeste 21 Oeste 0 -- -- 72
2017-09-16 22:00:00 11.4 11 Oeste 22 Oeste 0 -- -- 66
2017-09-16 21:00:00 12.8 12 Oeste 27 Noroeste 0 -- -- 59
2017-09-16 20:00:00 15 19 Oeste 33 Oeste 0 -- -- 49
2017-09-16 19:00:00 17.1 21 Noroeste 40 Noroeste 0 -- -- 45
2017-09-16 18:00:00 18.8 21 Noroeste 41 Noroeste 0 -- -- 41
2017-09-16 17:00:00 18.9 25 Oeste 42 Oeste 0 -- -- 41
2017-09-16 16:00:00 19.2 24 Oeste 41 Oeste 0 -- -- 41
2017-09-16 15:00:00 18.7 18 Oeste 41 Oeste 0 -- -- 45
2017-09-16 14:00:00 18.4 19 Oeste 35 Oeste 0 -- -- 45
2017-09-16 13:00:00 17.2 20 Oeste 41 Sudoeste 0 -- -- 50
2017-09-16 12:00:00 15.9 15 Oeste 31 Oeste 0 -- -- 60
2017-09-16 11:00:00 13.5 17 Oeste 30 Oeste 0 -- -- 68
2017-09-16 10:00:00 11.1 15 Oeste 29 Oeste 0 -- -- 78
2017-09-16 09:00:00 8.8 9 Oeste 20 Oeste 0 -- -- 86
2017-09-16 08:00:00 7.1 11 Oeste 21 Noroeste 0 -- -- 90
2017-09-16 07:00:00 7.3 12 Noroeste 25 Oeste 0 -- -- 89
2017-09-16 06:00:00 7.4 12 Noroeste 20 Oeste 0 -- -- 89
2017-09-16 05:00:00 8 14 Oeste 30 Oeste 0 -- -- 87
2017-09-16 04:00:00 8.4 16 Oeste 29 Oeste 0 -- -- 86
2017-09-16 03:00:00 8.8 12 Oeste 22 Oeste 0 -- -- 86
2017-09-16 02:00:00 9.1 12 Oeste 24 Oeste 0 -- -- 86
2017-09-16 01:00:00 9.2 10 Oeste 19 Noroeste 0 -- -- 83
2017-09-16 00:00:00 9.7 10 Oeste 22 Noroeste 0 -- -- 79
2017-09-15 23:00:00 10 8 Oeste 17 Oeste 0 -- -- 76
2017-09-15 22:00:00 11.1 6 Oeste 17 Oeste 0 -- -- 74
2017-09-15 21:00:00 12.7 5 Oeste 12 Nordeste 0 -- -- 83
2017-09-15 20:00:00 14.8 7 Este 17 Este 0 -- -- 80
2017-09-15 19:00:00 15.8 13 Este 22 Sudeste 0 -- -- 77
2017-09-15 18:00:00 16.2 17 Sudeste 23 Sudeste 0 -- -- 74
2017-09-15 17:00:00 16.7 14 Sudeste 23 Sudeste 0 -- -- 72
2017-09-15 16:00:00 17.3 10 Sudeste 17 Sudeste 0 -- -- 68
2017-09-15 15:00:00 16.8 6 Sudeste 17 Este 0 -- -- 68
2017-09-15 14:00:00 14.4 6 Este 12 Sudeste 0 -- -- 78
2017-09-15 13:00:00 12.9 2 Este 6 Sudoeste 0 -- -- 83
2017-09-15 12:00:00 12.1 0 Calma 5 Sudoeste 0 -- -- 87
2017-09-15 11:00:00 11.6 3 Sudeste 6 Este 0 -- -- 89
2017-09-15 10:00:00 10.9 0 Calma 7 Sur 0 -- -- 91
2017-09-15 09:00:00 10.3 0 Calma 8 Sur 0 -- -- 92
2017-09-15 08:00:00 10.2 4 Sur 9 Noroeste 2.4 -- -- 90
2017-09-15 07:00:00 10.7 7 Noroeste 13 Noroeste 1 -- -- 89
2017-09-15 06:00:00 10.8 7 Norte 23 Noroeste 0.6 -- -- 87
2017-09-15 05:00:00 11.8 17 Oeste 28 Noroeste 0.2 -- -- 78
2017-09-15 04:00:00 11.8 10 Oeste 28 Oeste 0.6 -- -- 82
2017-09-15 03:00:00 12.5 14 Oeste 28 Oeste 0 -- -- 72
2017-09-15 02:00:00 12.5 19 Oeste 36 Oeste 0 -- -- 69
2017-09-15 01:00:00 13.1 14 Oeste 42 Oeste 0 -- -- 62
2017-09-15 00:00:00 13.5 24 Oeste 43 Oeste 0 -- -- 59
2017-09-14 23:00:00 14.3 26 Oeste 46 Oeste 0 -- -- 58
2017-09-14 22:00:00 14.8 25 Oeste 39 Oeste 0 -- -- 59
2017-09-14 21:00:00 16.2 22 Oeste 37 Oeste 0 -- -- 56
2017-09-14 20:00:00 18.5 14 Oeste 39 Oeste 0 -- -- 48
2017-09-14 19:00:00 20.9 17 Oeste 39 Oeste 0 -- -- 43
2017-09-14 18:00:00 22.3 23 Noroeste 39 Oeste 0 -- -- 43
2017-09-14 17:00:00 23.6 27 Noroeste 45 Noroeste 0 -- -- 43
2017-09-14 16:00:00 24.1 29 Noroeste 46 Noroeste 0 -- -- 43
2017-09-14 15:00:00 24.5 28 Noroeste 45 Noroeste 0 -- -- 43
2017-09-14 14:00:00 25.5 24 Oeste 42 Noroeste 0 -- -- 45
2017-09-14 13:00:00 25.6 21 Oeste 34 Noroeste 0 -- -- 48
2017-09-14 12:00:00 24.3 11 Oeste 28 Sudoeste 0 -- -- 55
2017-09-14 11:00:00 21.4 14 Sudoeste 24 Sudoeste 0 -- -- 67
2017-09-14 10:00:00 18.3 12 Oeste 21 Oeste 0 -- -- 73
2017-09-14 09:00:00 15.1 3 Sudoeste 8 Noroeste 0 -- -- 89
2017-09-14 08:00:00 13.2 4 Oeste 7 Nordeste 0 -- -- 88
2017-09-14 07:00:00 13.7 5 Norte 9 Noroeste 0 -- -- 88
2017-09-14 06:00:00 14.6 4 Nordeste 9 Este 0 -- -- 86
2017-09-14 05:00:00 14.8 5 Nordeste 8 Este 0 -- -- 84
2017-09-14 04:00:00 16.2 5 Este 16 Este 0 -- -- 81
2017-09-14 03:00:00 17.4 9 Este 24 Este 0 -- -- 79
2017-09-14 02:00:00 18.1 14 Este 23 Este 0 -- -- 74
2017-09-14 01:00:00 18.7 13 Este 22 Este 0 -- -- 65
2017-09-14 00:00:00 19.6 12 Este 20 Este 0 -- -- 60
2017-09-13 23:00:00 20.5 14 Este 20 Este 0 -- -- 61
2017-09-13 22:00:00 19.6 10 Este 14 Este 0 -- -- 66
2017-09-13 21:00:00 22 10 Sudeste 15 Sudeste 0 -- -- 58
2017-09-13 20:00:00 25 10 Sudeste 17 Este 0 -- -- 50
2017-09-13 19:00:00 27.7 10 Sudeste 16 Sudeste 0 -- -- 45
2017-09-13 18:00:00 29.3 5 Sudeste 13 Noroeste 0 -- -- 41
2017-09-13 17:00:00 29.2 4 Oeste 14 Este 0 -- -- 38
2017-09-13 16:00:00 28.5 8 Sudeste 13 Sudeste 0 -- -- 41
2017-09-13 15:00:00 27.7 7 Sudeste 21 Oeste 0 -- -- 43
2017-09-13 14:00:00 26 5 Oeste 14 Noroeste 0 -- -- 45
2017-09-13 13:00:00 24.6 5 Oeste 19 Oeste 0 -- -- 49
2017-09-13 12:00:00 22 5 Noroeste 14 Sudoeste 0 -- -- 58
2017-09-13 11:00:00 19.8 8 Sudoeste 16 Sudoeste 0 -- -- 66
2017-09-13 10:00:00 17.4 4 Sudoeste 12 Sudoeste 0 -- -- 73
2017-09-13 09:00:00 14.6 4 Sudeste 10 Este 0 -- -- 85
2017-09-13 08:00:00 12.1 6 Noroeste 10 Noroeste 0 -- -- 87
2017-09-13 07:00:00 12.6 6 Oeste 12 Oeste 0 -- -- 82
2017-09-13 06:00:00 13 9 Oeste 15 Sudoeste 0 -- -- 86
2017-09-13 05:00:00 11.5 4 Oeste 9 Sudoeste 0 -- -- 84
2017-09-13 04:00:00 11.8 6 Sudoeste 10 Sudoeste 0 -- -- 83
2017-09-13 03:00:00 11.6 3 Oeste 6 Oeste 0 -- -- 82
2017-09-13 02:00:00 12.3 2 Oeste 5 Oeste 0 -- -- 80
2017-09-13 01:00:00 13.7 2 Sudoeste 13 Noroeste 0 -- -- 74
2017-09-13 00:00:00 15.5 8 Oeste 20 Oeste 0 -- -- 66
2017-09-12 23:00:00 15.4 6 Oeste 17 Oeste 0 -- -- 67
2017-09-12 22:00:00 16.8 9 Oeste 27 Norte 0 -- -- 61
2017-09-12 21:00:00 18.8 14 Noroeste 26 Norte 0 -- -- 48
2017-09-12 20:00:00 20.4 18 Noroeste 40 Noroeste 0 -- -- 43
2017-09-12 19:00:00 21.9 27 Noroeste 48 Noroeste 0 -- -- 42
2017-09-12 18:00:00 22.2 32 Noroeste 49 Oeste 0 -- -- 41
2017-09-12 17:00:00 22.5 30 Oeste 54 Oeste 0 -- -- 42
2017-09-12 16:00:00 22.7 29 Noroeste 52 Noroeste 0 -- -- 40
2017-09-12 15:00:00 22.5 28 Oeste 51 Noroeste 0 -- -- 44
2017-09-12 14:00:00 21.4 23 Oeste 44 Noroeste 0 -- -- 51
2017-09-12 13:00:00 20.3 26 Oeste 43 Sudoeste 0 -- -- 54
2017-09-12 12:00:00 19.4 18 Oeste 40 Oeste 0 -- -- 57
2017-09-12 11:00:00 17.7 18 Oeste 41 Oeste 0 -- -- 62
2017-09-12 10:00:00 15.9 20 Oeste 44 Oeste 0 -- -- 69
2017-09-12 09:00:00 14.1 13 Oeste 26 Oeste 0 -- -- 78
2017-09-12 08:00:00 13.7 15 Oeste 33 Oeste 0 -- -- 78
2017-09-12 07:00:00 14.2 16 Oeste 33 Oeste 0 -- -- 76
2017-09-12 06:00:00 14.1 20 Noroeste 30 Noroeste 0 -- -- 77
2017-09-12 05:00:00 14 11 Oeste 33 Oeste 0 -- -- 77
2017-09-12 04:00:00 14.7 23 Oeste 37 Oeste 0 -- -- 75
2017-09-12 03:00:00 14.8 10 Oeste 25 Oeste 0 -- -- 73
2017-09-12 02:00:00 14.8 14 Oeste 22 Oeste 0 -- -- 74
2017-09-12 01:00:00 14.4 10 Sudoeste 17 Sudoeste 0 -- -- 78
2017-09-12 00:00:00 15 9 Sudoeste 18 Sudoeste 0 -- -- 76
2017-09-11 23:00:00 15.4 6 Sudoeste 11 Sudoeste 0 -- -- 73
2017-09-11 22:00:00 17.2 4 Oeste 14 Oeste 0 -- -- 68
2017-09-11 21:00:00 18.3 9 Oeste 28 Noroeste 0 -- -- 60
2017-09-11 20:00:00 20.6 15 Noroeste 32 Noroeste 0 -- -- 53
2017-09-11 19:00:00 23.3 19 Noroeste 39 Noroeste 0 -- -- 46
2017-09-11 18:00:00 24.5 24 Noroeste 37 Noroeste 0 -- -- 44
2017-09-11 17:00:00 25.1 21 Noroeste 40 Oeste 0 -- -- 45
2017-09-11 16:00:00 25.6 19 Oeste 40 Oeste 0 -- -- 44
2017-09-11 15:00:00 24.8 23 Oeste 45 Noroeste 0 -- -- 49
2017-09-11 14:00:00 24.3 24 Noroeste 42 Noroeste 0 -- -- 53
2017-09-11 13:00:00 23.1 20 Noroeste 40 Noroeste 0 -- -- 56
2017-09-11 12:00:00 23.2 20 Oeste 36 Oeste 0 -- -- 59
2017-09-11 11:00:00 20.9 21 Oeste 35 Noroeste 0 -- -- 67
2017-09-11 10:00:00 18.3 14 Oeste 28 Oeste 0 -- -- 76
2017-09-11 09:00:00 15.9 10 Oeste 23 Oeste 0 -- -- 84
2017-09-11 08:00:00 14.3 10 Oeste 23 Oeste 0 -- -- 89
2017-09-11 07:00:00 13.5 9 Oeste 18 Oeste 0 -- -- 90
2017-09-11 06:00:00 12.7 2 Sudeste 7 Oeste 0 -- -- 86
2017-09-11 05:00:00 13.4 3 Oeste 18 Oeste 0 -- -- 82
2017-09-11 04:00:00 14.2 11 Oeste 21 Oeste 0 -- -- 82
2017-09-11 03:00:00 13.2 10 Sudoeste 21 Sudoeste 0 -- -- 82
2017-09-11 02:00:00 13.7 12 Sudoeste 19 Sudoeste 0 -- -- 79
2017-09-11 01:00:00 14.2 8 Oeste 23 Oeste 0 -- -- 73
2017-09-11 00:00:00 15.8 17 Noroeste 28 Noroeste 0 -- -- 63
2017-09-10 23:00:00 16.2 14 Noroeste 25 Noroeste 0 -- -- 60
2017-09-10 22:00:00 16.7 15 Noroeste 31 Noroeste 0 -- -- 61
2017-09-10 21:00:00 16.9 13 Oeste 31 Oeste 0 -- -- 61
2017-09-10 20:00:00 18 18 Noroeste 44 Oeste 0 -- -- 57
2017-09-10 19:00:00 19.1 31 Oeste 51 Noroeste 0 -- -- 52
2017-09-10 18:00:00 19.6 35 Noroeste 53 Noroeste 0 -- -- 51
2017-09-10 17:00:00 20.3 31 Noroeste 51 Oeste 0 -- -- 51
2017-09-10 16:00:00 20.2 28 Noroeste 53 Noroeste 0 -- -- 50
2017-09-10 15:00:00 19.8 33 Oeste 54 Oeste 0 -- -- 51
2017-09-10 14:00:00 19.4 35 Oeste 61 Noroeste 0 -- -- 52
2017-09-10 13:00:00 18.8 31 Oeste 57 Oeste 0 -- -- 57
2017-09-10 12:00:00 17.7 29 Oeste 50 Oeste 0 -- -- 61
2017-09-10 11:00:00 16.3 28 Oeste 57 Oeste 0 -- -- 66
2017-09-10 10:00:00 15.4 32 Oeste 51 Oeste 0 -- -- 64
2017-09-10 09:00:00 12.5 27 Oeste 47 Oeste 0 -- -- 80
2017-09-10 08:00:00 10.6 16 Oeste 32 Oeste 0 -- -- 85
2017-09-10 07:00:00 10.9 14 Oeste 30 Noroeste 0 -- -- 84
2017-09-10 06:00:00 11.4 20 Oeste 41 Oeste 0 -- -- 81
2017-09-10 05:00:00 11.1 13 Oeste 36 Oeste 0 -- -- 82
2017-09-10 04:00:00 11.2 15 Oeste 32 Noroeste 0 -- -- 82
2017-09-10 03:00:00 11.6 17 Oeste 39 Oeste 0 -- -- 79
2017-09-10 02:00:00 12.1 22 Oeste 40 Oeste 0 -- -- 76
2017-09-10 01:00:00 12.4 17 Oeste 27 Oeste 0 -- -- 75
2017-09-10 00:00:00 12.9 16 Oeste 31 Oeste 0 -- -- 71
2017-09-09 23:00:00 13.3 18 Oeste 33 Oeste 0 -- -- 68
2017-09-09 22:00:00 14.4 10 Oeste 36 Oeste 0 -- -- 61
2017-09-09 21:00:00 15.3 18 Noroeste 41 Noroeste 0 -- -- 61
2017-09-09 20:00:00 16.8 24 Noroeste 42 Noroeste 0 -- -- 55
2017-09-09 19:00:00 18.6 24 Noroeste 39 Noroeste 0 -- -- 51
2017-09-09 18:00:00 20.2 26 Noroeste 45 Noroeste 0 -- -- 46
2017-09-09 17:00:00 20.7 26 Noroeste 48 Noroeste 0 -- -- 46
2017-09-09 16:00:00 20.8 22 Oeste 42 Noroeste 0 -- -- 50
2017-09-09 15:00:00 21.3 24 Oeste 41 Noroeste 0 -- -- 48
2017-09-09 14:00:00 18.8 21 Noroeste 41 Noroeste 0 -- -- 56
2017-09-09 13:00:00 18.1 23 Noroeste 45 Oeste 0 -- -- 55
2017-09-09 12:00:00 17.1 27 Noroeste 50 Noroeste 0 -- -- 59
2017-09-09 11:00:00 17.5 26 Noroeste 42 Noroeste 0 -- -- 67
2017-09-09 10:00:00 16 18 Oeste 31 Oeste 0 -- -- 83
2017-09-09 09:00:00 15.9 12 Oeste 21 Oeste 0 -- -- 78
2017-09-09 08:00:00 15.3 6 Oeste 15 Oeste 0 -- -- 76
2017-09-09 07:00:00 15.2 4 Oeste 11 Noroeste 0 -- -- 82
2017-09-09 06:00:00 14.5 10 Noroeste 14 Noroeste 0 -- -- 79
2017-09-09 05:00:00 14.4 0 Calma 11 Este 0 -- -- 77
2017-09-09 04:00:00 14.6 7 Este 16 Este 0 -- -- 72
2017-09-09 03:00:00 14.7 11 Este 17 Nordeste 0 -- -- 66
2017-09-09 02:00:00 14.8 9 Este 15 Nordeste 0 -- -- 67
2017-09-09 01:00:00 14.4 8 Nordeste 13 Este 0 -- -- 64
2017-09-09 00:00:00 14.8 6 Nordeste 13 Sudeste 0 -- -- 68
2017-09-08 23:00:00 16.3 10 Nordeste 17 Nordeste 0 -- -- 60
2017-09-08 22:00:00 16.9 5 Nordeste 8 Norte 0 -- -- 68
2017-09-08 21:00:00 19.8 6 Sudeste 9 Sudeste 0 -- -- 62
2017-09-08 20:00:00 25.3 5 Sudoeste 9 Sudoeste 0 -- -- 46
2017-09-08 19:00:00 27.7 4 Oeste 11 Oeste 0 -- -- 36
2017-09-08 18:00:00 27.6 6 Sudoeste 15 Sudoeste 0 -- -- 27
2017-09-08 17:00:00 27.6 6 Sudoeste 17 Sudoeste 0 -- -- 29
2017-09-08 16:00:00 26.6 7 Sudoeste 21 Oeste 0 -- -- 26
2017-09-08 15:00:00 25.4 12 Oeste 21 Oeste 0 -- -- 27
2017-09-08 14:00:00 23.6 10 Oeste 20 Oeste 0 -- -- 36
2017-09-08 13:00:00 21.5 9 Sudoeste 18 Oeste 0 -- -- 47
2017-09-08 12:00:00 18.8 10 Oeste -- -- -- -- -- 58
2017-09-08 11:00:00 16.8 10 Oeste 21 Oeste 0 -- -- 67
2017-09-08 10:00:00 13.8 8 Oeste 13 Oeste 0 -- -- 77
2017-09-08 09:00:00 11 7 Noroeste 9 Noroeste 0 -- -- 90
2017-09-08 08:00:00 9.5 5 Noroeste 13 Oeste 0 -- -- 88
2017-09-08 07:00:00 10.3 8 Oeste 20 Oeste 0 -- -- 86
2017-09-08 06:00:00 11.3 9 Oeste 24 Oeste 0 -- -- 83
2017-09-08 05:00:00 11.9 9 Oeste 23 Oeste 0 -- -- 81
2017-09-08 04:00:00 12.4 17 Oeste 32 Oeste 0 -- -- 80
2017-09-08 03:00:00 12.8 18 Oeste 32 Oeste 0 -- -- 78
2017-09-08 02:00:00 13.3 19 Oeste 44 Oeste 0 -- -- 76
2017-09-08 01:00:00 14.4 26 Oeste 42 Oeste 0 -- -- 70
2017-09-08 00:00:00 15 22 Oeste 35 Oeste 0 -- -- 68
2017-09-07 23:00:00 15.4 6 Oeste 19 Oeste 0 -- -- 67
2017-09-07 22:00:00 17 13 Oeste 28 Oeste 0 -- -- 61
2017-09-07 21:00:00 18.8 15 Oeste 42 Oeste 0 -- -- 54
2017-09-07 20:00:00 21.1 26 Oeste 40 Oeste 0 -- -- 46
2017-09-07 19:00:00 23.4 23 Oeste 45 Oeste 0 -- -- 40
2017-09-07 18:00:00 24.7 21 Oeste 42 Oeste 0 -- -- 39
2017-09-07 17:00:00 25.8 17 Oeste 38 Oeste 0 -- -- 36
2017-09-07 16:00:00 24.9 21 Oeste 41 Oeste 0 -- -- 40
2017-09-07 15:00:00 24.2 21 Oeste 37 Oeste 0 -- -- 40
2017-09-07 14:00:00 23.4 19 Oeste 40 Oeste 0 -- -- 44
2017-09-07 13:00:00 22.1 16 Oeste 31 Oeste 0 -- -- 44
2017-09-07 12:00:00 20.3 13 Oeste 28 Oeste 0 -- -- 51
2017-09-07 11:00:00 17.7 15 Oeste 31 Oeste 0 -- -- 58
2017-09-07 10:00:00 15.2 18 Oeste 35 Oeste 0 -- -- 69
2017-09-07 09:00:00 13.3 15 Oeste 26 Oeste 0 -- -- 76
2017-09-07 08:00:00 11.8 8 Oeste 15 Noroeste 0 -- -- 82
2017-09-07 07:00:00 12.1 10 Oeste 31 Oeste 0 -- -- 80
2017-09-07 06:00:00 12.9 17 Oeste 27 Oeste 0 -- -- 78
2017-09-07 05:00:00 13.5 15 Oeste 34 Oeste 0 -- -- 78
2017-09-07 04:00:00 13.7 22 Oeste 35 Noroeste 0 -- -- 76
2017-09-07 03:00:00 14 18 Oeste 34 Oeste 0 -- -- 76
2017-09-07 02:00:00 14.3 18 Oeste 42 Oeste 0 -- -- 75
2017-09-07 01:00:00 14.8 21 Oeste 37 Oeste 0 -- -- 71
2017-09-07 00:00:00 14.9 19 Oeste 37 Oeste 0 -- -- 70
2017-09-06 23:00:00 15.9 13 Oeste 47 Oeste 0 -- -- 65
2017-09-06 22:00:00 17.2 25 Oeste 43 Oeste 0 -- -- 63
2017-09-06 21:00:00 19 22 Oeste 39 Oeste 0 -- -- 59
2017-09-06 20:00:00 21.7 21 Oeste 43 Oeste 0 -- -- 53
2017-09-06 19:00:00 24.3 25 Oeste 45 Oeste 0 -- -- 48
2017-09-06 18:00:00 26 26 Oeste 49 Noroeste 0 -- -- 46
2017-09-06 17:00:00 27 26 Oeste 48 Oeste 0 -- -- 45
2017-09-06 16:00:00 28.1 21 Oeste 40 Sudoeste 0 -- -- 45
2017-09-06 15:00:00 28.3 21 Oeste 38 Oeste 0 -- -- 46
2017-09-06 14:00:00 27.9 18 Oeste 35 Oeste 0 -- -- 48
2017-09-06 13:00:00 26.1 16 Oeste 33 Oeste 0 -- -- 55
2017-09-06 12:00:00 24.1 16 Oeste 36 Oeste 0 -- -- 59
2017-09-06 11:00:00 21.6 17 Oeste 32 Oeste 0 -- -- 67
2017-09-06 10:00:00 19.9 19 Oeste 32 Oeste 0 -- -- 71
2017-09-06 09:00:00 17.9 17 Oeste 30 Oeste 0 -- -- 80
2017-09-06 08:00:00 16.2 12 Oeste 24 Oeste 0 -- -- 87
2017-09-06 07:00:00 16.1 10 Oeste 25 Oeste 0 -- -- 85
2017-09-06 06:00:00 16.3 12 Noroeste 30 Oeste 0 -- -- 84
2017-09-06 05:00:00 16.6 15 Noroeste 31 Oeste 0 -- -- 82
2017-09-06 04:00:00 17 17 Oeste 29 Oeste 0 -- -- 80
2017-09-06 03:00:00 17.5 12 Oeste 25 Noroeste 0 -- -- 81
2017-09-06 02:00:00 18.3 9 Oeste 18 Oeste 0 -- -- 81
2017-09-06 01:00:00 19.4 8 Oeste 29 Oeste 0 -- -- 78
2017-09-06 00:00:00 21.2 13 Oeste 18 Noroeste 0 -- -- 72
2017-09-05 23:00:00 21.3 4 Noroeste 12 Noroeste 0 -- -- 73
2017-09-05 22:00:00 22.7 8 Noroeste 13 Noroeste 0 -- -- 64
2017-09-05 21:00:00 24.6 6 Oeste 10 Oeste 0 -- -- 63
2017-09-05 20:00:00 29.3 4 Oeste 12 Oeste 0 -- -- 48
2017-09-05 19:00:00 30.5 5 Sudoeste 13 Sur 0 -- -- 44
2017-09-05 18:00:00 30.9 4 Sur 12 Sudoeste 0 -- -- 43
2017-09-05 17:00:00 30.8 4 Sudoeste 14 Noroeste 0 -- -- 38
2017-09-05 16:00:00 30.1 6 Sudeste 12 Oeste 0 -- -- 42
2017-09-05 15:00:00 29.3 4 Oeste 12 Sudoeste 0 -- -- 44
2017-09-05 14:00:00 28.2 5 Este 14 Sudeste 0 -- -- 52
2017-09-05 13:00:00 26.7 7 Sudeste 15 Sudeste 0 -- -- 59
2017-09-05 12:00:00 25.2 9 Sudeste 17 Sudeste 0 -- -- 65
2017-09-05 11:00:00 23.2 10 Sudeste 16 Sudeste 0 -- -- 73
2017-09-05 10:00:00 21.4 8 Este 12 Este 0 -- -- 82
2017-09-05 09:00:00 18.5 6 Nordeste 10 Este 0 -- -- 93
2017-09-05 08:00:00 16.2 5 Nordeste 7 Nordeste 0 -- -- 93
2017-09-05 07:00:00 15.5 0 Calma 5 Este 0 -- -- 88
2017-09-05 06:00:00 15.8 3 Este 5 Este 0 -- -- 88
2017-09-05 05:00:00 16.5 0 Calma 5 Sudoeste 0 -- -- 88
2017-09-05 04:00:00 17.9 3 Sudoeste 15 Este 0 -- -- 88
2017-09-05 03:00:00 18.7 12 Este 20 Este 0 -- -- 88
2017-09-05 02:00:00 19.1 13 Este 22 Este 0 -- -- 88
2017-09-05 01:00:00 19.8 13 Este 21 Este 0 -- -- 84
2017-09-05 00:00:00 20.5 12 Este 20 Este 0 -- -- 81
2017-09-04 23:00:00 21.1 13 Este 19 Nordeste 0 -- -- 75
2017-09-04 22:00:00 21.6 7 Sudeste 10 Este 0 -- -- 75
2017-09-04 21:00:00 23.5 5 Nordeste 9 Este 0 -- -- 60
2017-09-04 20:00:00 28 3 Oeste 9 Sudoeste 0 -- -- 57
2017-09-04 19:00:00 28.9 3 Sudeste 12 Sudoeste 0 -- -- 42
2017-09-04 18:00:00 29.2 3 Sudeste 13 Oeste 0 -- -- 42
2017-09-04 17:00:00 29.2 8 Oeste 21 Sudoeste 0 -- -- 43
2017-09-04 16:00:00 28.6 4 Sur 16 Sudoeste 0 -- -- 45
2017-09-04 15:00:00 28 7 Sur 14 Sudeste 0 -- -- 47
2017-09-04 14:00:00 26.9 6 Sur 17 Sudeste 0 -- -- 48
2017-09-04 13:00:00 26 10 Sudeste 19 Sudeste 0 -- -- 52
2017-09-04 12:00:00 25.1 7 Sudeste 15 Sudeste 0 -- -- 56
2017-09-04 11:00:00 23.6 2 Sudeste 6 Sudeste 0 -- -- 57
2017-09-04 10:00:00 20.7 0 Calma 4 Sudoeste 0 -- -- 71
2017-09-04 09:00:00 16.7 3 Noroeste 10 Sudoeste 0 -- -- 90
2017-09-04 08:00:00 14.9 0 Calma 6 Nordeste 0 -- -- 87
2017-09-04 07:00:00 15.1 6 Nordeste 8 Nordeste 0 -- -- 88
2017-09-04 06:00:00 14.8 0 Calma 8 Nordeste 0 -- -- 85
2017-09-04 05:00:00 16.4 5 Sudeste 17 Nordeste 0 -- -- 84
2017-09-04 04:00:00 17.8 11 Nordeste 17 Nordeste 0 -- -- 79
2017-09-04 03:00:00 17.5 6 Norte 13 Este 0 -- -- 82
2017-09-04 02:00:00 17.8 8 Nordeste 12 Nordeste 0 -- -- 81
2017-09-04 01:00:00 18.1 8 Sudeste 10 Sur 0.2 -- -- 81
2017-09-04 00:00:00 19 6 Norte 12 Nordeste 0 -- -- 72
2017-09-03 23:00:00 19.3 0 Calma 11 Sudoeste 0 -- -- 71
2017-09-03 22:00:00 20.6 3 Oeste 12 Oeste 0 -- -- 72
2017-09-03 21:00:00 22 10 Oeste 15 Oeste 0 -- -- 53
2017-09-03 20:00:00 24 4 Oeste 15 Oeste 0 -- -- 49
2017-09-03 19:00:00 25.5 7 Oeste 24 Oeste 0 -- -- 41
2017-09-03 18:00:00 27.2 11 Oeste 28 Oeste 0 -- -- 37
2017-09-03 17:00:00 26.4 14 Oeste 36 Sudoeste 0 -- -- 35
2017-09-03 16:00:00 27.2 15 Oeste 26 Sudoeste 0 -- -- 34
2017-09-03 15:00:00 26.3 9 Oeste 19 Noroeste 0 -- -- 37
2017-09-03 14:00:00 23.8 7 Sudoeste 15 Sudoeste 0 -- -- 46
2017-09-03 13:00:00 22.2 4 Sudeste 8 Sudeste 0 -- -- 49
2017-09-03 12:00:00 20.2 4 Sudeste 10 Sur 0 -- -- 55
2017-09-03 11:00:00 18 5 Sudeste 11 Este 0 -- -- 67
2017-09-03 10:00:00 14.7 3 Sudeste 12 Este 0 -- -- 83
2017-09-03 09:00:00 12.2 0 Calma 8 Nordeste 0 -- -- 91
2017-09-03 08:00:00 10.7 7 Nordeste 10 Nordeste 0 -- -- 90
2017-09-03 07:00:00 9.9 0 Calma 6 Nordeste 0 -- -- 88
2017-09-03 06:00:00 9.9 0 Calma 5 Este 0 -- -- 88
2017-09-03 05:00:00 10.4 0 Calma 4 Noroeste 0 -- -- 85
2017-09-03 04:00:00 11.9 2 Noroeste 9 Norte 0 -- -- 82
2017-09-03 03:00:00 13.1 4 Oeste 16 Sudoeste 0 -- -- 81
2017-09-03 02:00:00 13 3 Sudoeste 16 Noroeste 0 -- -- 82
2017-09-03 01:00:00 13.4 12 Noroeste 19 Oeste 0 -- -- 80
2017-09-03 00:00:00 14.2 9 Oeste 21 Oeste 0 -- -- 77
2017-09-02 23:00:00 15.2 9 Oeste 21 Oeste 0 -- -- 72
2017-09-02 22:00:00 15.8 8 Oeste 19 Sudoeste 0 -- -- 68
2017-09-02 21:00:00 18 8 Oeste 28 Oeste 0 -- -- 60
2017-09-02 20:00:00 21.4 14 Oeste 35 Oeste 0 -- -- 47
2017-09-02 19:00:00 23 19 Oeste 40 Oeste 0 -- -- 44
2017-09-02 18:00:00 23.8 23 Oeste 39 Oeste 0 -- -- 44
2017-09-02 17:00:00 23.7 23 Noroeste 41 Oeste 0 -- -- 46
2017-09-02 16:00:00 22.9 21 Noroeste 41 Oeste 0 -- -- 49
2017-09-02 15:00:00 23.3 26 Noroeste 42 Oeste 0 -- -- 44
2017-09-02 14:00:00 22.5 25 Oeste 48 Oeste 0 -- -- 48
2017-09-02 13:00:00 20.9 28 Oeste 45 Oeste 0 -- -- 51
2017-09-02 12:00:00 20.2 23 Oeste 40 Oeste 0 -- -- 50
2017-09-02 11:00:00 18.9 22 Oeste 37 Noroeste 0 -- -- 53
2017-09-02 10:00:00 16.2 15 Oeste 45 Noroeste 0 -- -- 68
2017-09-02 09:00:00 13.4 21 Oeste 47 Oeste 0 -- -- 80
2017-09-02 08:00:00 12 17 Oeste 42 Noroeste 0 -- -- 85
2017-09-02 07:00:00 12.5 16 Oeste 38 Oeste 0 -- -- 82
2017-09-02 06:00:00 12.3 23 Oeste 42 Oeste 0 -- -- 83
2017-09-02 05:00:00 12.7 22 Oeste 36 Oeste 0 -- -- 81
2017-09-02 04:00:00 13 19 Oeste 32 Oeste 0 -- -- 79
2017-09-02 03:00:00 13.3 12 Oeste 26 Oeste 0 -- -- 77
2017-09-02 02:00:00 13.4 13 Oeste 27 Oeste 0 -- -- 78
2017-09-02 01:00:00 13.5 12 Oeste 31 Oeste 0 -- -- 78
2017-09-02 00:00:00 14.5 17 Oeste 35 Oeste 0 -- -- 70
2017-09-01 23:00:00 16 20 Oeste 36 Oeste 0 -- -- 61
2017-09-01 22:00:00 16.8 19 Oeste 42 Noroeste 0 -- -- 59
2017-09-01 21:00:00 17.8 22 Noroeste 47 Noroeste 0 -- -- 56
2017-09-01 20:00:00 19.9 31 Noroeste 50 Noroeste 0 -- -- 48
2017-09-01 19:00:00 21.6 28 Oeste 47 Oeste 0 -- -- 44
2017-09-01 18:00:00 22.8 30 Oeste 49 Noroeste 0 -- -- 41
2017-09-01 17:00:00 23.2 28 Oeste 45 Oeste 0 -- -- 40
2017-09-01 16:00:00 23.4 26 Oeste 44 Oeste 0 -- -- 42
2017-09-01 15:00:00 23.2 25 Oeste 44 Oeste 0 -- -- 44
2017-09-01 14:00:00 22.9 22 Oeste 43 Oeste 0 -- -- 45
2017-09-01 13:00:00 22.1 25 Oeste 42 Oeste 0 -- -- 44
2017-09-01 12:00:00 20.6 21 Oeste -- -- -- -- -- 52
2017-09-01 11:00:00 17.6 23 Oeste 37 Oeste 0 -- -- 62
2017-09-01 10:00:00 15 20 Oeste 35 Oeste 0 -- -- 72
2017-09-01 09:00:00 13.1 18 Oeste 31 Oeste 0 -- -- 81
2017-09-01 08:00:00 11.4 7 Sur 26 Oeste 0 -- -- 89
2017-09-01 07:00:00 11.8 9 Sudoeste 23 Sudoeste 0 -- -- 86
2017-09-01 06:00:00 12.3 11 Oeste 28 Oeste 0 -- -- 84
2017-09-01 05:00:00 12.3 20 Noroeste 36 Noroeste 0 -- -- 85
2017-09-01 04:00:00 12.9 19 Noroeste 33 Oeste 0 -- -- 83
2017-09-01 03:00:00 14.1 19 Oeste 32 Oeste 0 -- -- 79
2017-09-01 02:00:00 13.8 8 Oeste 23 Noroeste 0 -- -- 80
2017-09-01 01:00:00 14.3 12 Oeste 22 Oeste 0 -- -- 80
2017-09-01 00:00:00 14.8 9 Oeste 16 Oeste 0 -- -- 78
2017-08-31 23:00:00 15.7 6 Oeste 16 Oeste 0 -- -- 76
2017-08-31 22:00:00 17.2 5 Sudoeste 19 Oeste 0 -- -- 71
2017-08-31 21:00:00 19.3 14 Noroeste 25 Oeste 0 -- -- 59
2017-08-31 20:00:00 22.4 13 Oeste 27 Oeste 0 -- -- 50
2017-08-31 19:00:00 24.4 12 Oeste 30 Oeste 0 -- -- 46
2017-08-31 18:00:00 25 15 Oeste 31 Oeste 0 -- -- 47
2017-08-31 17:00:00 24.9 17 Oeste 36 Oeste 0 -- -- 51
2017-08-31 16:00:00 24.6 15 Oeste 34 Oeste 0 -- -- 52
2017-08-31 15:00:00 23.8 20 Oeste 37 Oeste 0 -- -- 53
2017-08-31 14:00:00 22.2 18 Oeste 36 Oeste 0 -- -- 63
2017-08-31 13:00:00 18.6 18 Oeste 33 Oeste 0.2 -- -- 76
2017-08-31 12:00:00 16.6 13 Oeste 31 Noroeste 0.4 -- -- 85
2017-08-31 11:00:00 16.5 15 Oeste 30 Oeste 0 -- -- 87
2017-08-31 10:00:00 14.7 14 Oeste 32 Oeste 0.2 -- -- 94
2017-08-31 09:00:00 14.7 17 Oeste 31 Oeste 0 -- -- 92
2017-08-31 08:00:00 14.7 13 Oeste 32 Oeste 0 -- -- 91
2017-08-31 07:00:00 14.8 22 Noroeste 37 Oeste 0 -- -- 90
2017-08-31 06:00:00 15.2 16 Oeste 32 Oeste 0 -- -- 90
2017-08-31 05:00:00 15.8 18 Oeste 31 Oeste 0 -- -- 91
2017-08-31 04:00:00 16.5 12 Oeste 22 Oeste 0 -- -- 91
2017-08-31 03:00:00 17.1 8 Oeste 17 Oeste 0 -- -- 91
2017-08-31 02:00:00 17.5 5 Oeste 19 Oeste 0 -- -- 89
2017-08-31 01:00:00 17.6 5 Oeste 13 Noroeste 0 -- -- 87
2017-08-31 00:00:00 18.3 10 Oeste 22 Oeste 1.6 -- -- 80
2017-08-30 23:00:00 19.8 7 Oeste 28 Oeste 0 -- -- 71
2017-08-30 22:00:00 21.1 4 Sudeste 8 Este 0 -- -- 79
2017-08-30 21:00:00 22.8 3 Este 8 Nordeste 0 -- -- 74
2017-08-30 20:00:00 23.5 5 Este 11 Este 0 -- -- 68
2017-08-30 19:00:00 23.5 8 Este 11 Este 0 -- -- 68
2017-08-30 18:00:00 24.8 5 Sur 16 Este 0 -- -- 64
2017-08-30 17:00:00 26.2 6 Este 12 Este 0 -- -- 54
2017-08-30 16:00:00 26.6 3 Nordeste 15 Sudeste 0 -- -- 50
2017-08-30 15:00:00 26.7 5 Sudeste 14 Sudeste 0 -- -- 51
2017-08-30 14:00:00 26 7 Sudeste 18 Sudeste 0 -- -- 54
2017-08-30 13:00:00 24.9 9 Sudeste 24 Sudeste 0 -- -- 60
2017-08-30 12:00:00 23.8 14 Sudeste 27 Este 0 -- -- 65
2017-08-30 11:00:00 22.4 13 Sudeste 26 Este 0 -- -- 71
2017-08-30 10:00:00 20.2 12 Sudeste 21 Este 0 -- -- 79
2017-08-30 09:00:00 17.9 9 Este 17 Nordeste 0 -- -- 88
2017-08-30 08:00:00 17.2 10 Este 22 Este 0 -- -- 85
2017-08-30 07:00:00 17.7 9 Este 15 Este 0 -- -- 84
2017-08-30 06:00:00 17.9 8 Este 12 Este 0 -- -- 85
2017-08-30 05:00:00 18.2 5 Oeste 12 Sudeste 0 -- -- 85
2017-08-30 04:00:00 18.2 7 Sudeste 14 Este 0 -- -- 83
2017-08-30 03:00:00 18.4 9 Este 21 Este 0 -- -- 82
2017-08-30 02:00:00 18.9 13 Sudeste 27 Sudeste 0 -- -- 79
2017-08-30 01:00:00 18.4 13 Este 22 Este 0 -- -- 83
2017-08-30 00:00:00 18.9 8 Este 23 Este 0 -- -- 80
2017-08-29 23:00:00 20.1 16 Este 26 Este 0 -- -- 75
2017-08-29 22:00:00 20.8 16 Este 37 Este 0 -- -- 74
2017-08-29 21:00:00 22.8 22 Este 34 Este 0 -- -- 69
2017-08-29 20:00:00 23.4 20 Sudeste 42 Este 0 -- -- 63
2017-08-29 19:00:00 24.2 22 Este 38 Sudeste 0 -- -- 71
2017-08-29 18:00:00 25.1 23 Este 38 Este 0 -- -- 68
2017-08-29 17:00:00 25.7 18 Sudeste 30 Sudeste 0 -- -- 68
2017-08-29 16:00:00 25.7 14 Sudeste 25 Este 0 -- -- 67
2017-08-29 15:00:00 26.3 10 Sudeste 21 Sudeste 0 -- -- 66
2017-08-29 14:00:00 25.5 12 Sudeste 21 Sudeste 0 -- -- 69
2017-08-29 13:00:00 24.3 10 Sudeste 19 Este 0 -- -- 73
2017-08-29 12:00:00 23.2 5 Este 13 Norte 0 -- -- 77
2017-08-29 11:00:00 20.8 6 Norte 18 Noroeste 0 -- -- 84
2017-08-29 10:00:00 17.8 9 Norte 16 Norte 0 -- -- 95
2017-08-29 09:00:00 17.2 8 Noroeste 14 Noroeste 0.2 -- -- 96
2017-08-29 08:00:00 16.2 5 Sur 13 Sudoeste 0 -- -- 96
2017-08-29 07:00:00 15.8 2 Oeste 6 Noroeste 0 -- -- 95
2017-08-29 06:00:00 16.1 6 Noroeste 10 Sudoeste 0 -- -- 95
2017-08-29 05:00:00 16.5 9 Sudoeste 14 Sudoeste 0 -- -- 95
2017-08-29 04:00:00 16.9 12 Sudoeste 18 Sudoeste 0 -- -- 94
2017-08-29 03:00:00 17.2 5 Sudoeste 8 Noroeste 0 -- -- 93
2017-08-29 02:00:00 17.4 8 Noroeste 22 Noroeste 0.2 -- -- 94
2017-08-29 01:00:00 17.5 12 Noroeste 30 Sudoeste 9 -- -- 93
2017-08-29 00:00:00 18.5 8 Oeste 32 Oeste 0.2 -- -- 87
2017-08-28 23:00:00 19.2 10 Oeste 21 Oeste 1 -- -- 85
2017-08-28 22:00:00 21.3 9 Oeste 35 Sudoeste 0 -- -- 73
2017-08-28 21:00:00 22.8 9 Sudoeste 14 Norte 0 -- -- 75
2017-08-28 20:00:00 24.1 9 Norte 20 Noroeste 0 -- -- 66
2017-08-28 19:00:00 24 13 Noroeste 23 Oeste 0 -- -- 73
2017-08-28 18:00:00 25.5 16 Sudoeste 42 Oeste 0 -- -- 67
2017-08-28 17:00:00 28.3 7 Sudeste 15 Sudeste 0 -- -- 55
2017-08-28 16:00:00 29.2 9 Sudeste 22 Sudeste 0 -- -- 50
2017-08-28 15:00:00 30.3 9 Sudeste 19 Sudeste 0 -- -- 50
2017-08-28 14:00:00 29.3 13 Sudeste 22 Sudeste 0 -- -- 54
2017-08-28 13:00:00 27.6 10 Sudeste 15 Sudeste 0 -- -- 58
2017-08-28 12:00:00 25.7 6 Sudeste 13 Este 0 -- -- 69
2017-08-28 11:00:00 21.3 4 Norte 11 Sudoeste 0 -- -- 86
2017-08-28 10:00:00 19.7 5 Nordeste 11 Este 0 -- -- 91
2017-08-28 09:00:00 17.5 0 Calma 7 Este 0 -- -- 94
2017-08-28 08:00:00 16.7 4 Nordeste 9 Nordeste 0 -- -- 95
2017-08-28 07:00:00 15.8 6 Nordeste 8 Nordeste 0 -- -- 95
2017-08-28 06:00:00 15.4 2 Oeste 8 Sur 0 -- -- 94
2017-08-28 05:00:00 15.9 7 Sudoeste 9 Sudoeste 0 -- -- 93
2017-08-28 04:00:00 16.4 4 Nordeste 6 Nordeste 0 -- -- 94
2017-08-28 03:00:00 16.6 5 Sudoeste 8 Sur 0 -- -- 93
2017-08-28 02:00:00 17.5 5 Noroeste 8 Nordeste 0 -- -- 93
2017-08-28 01:00:00 17.8 6 Nordeste 9 Nordeste 0 -- -- 93
2017-08-28 00:00:00 17.8 0 Calma 6 Sur 0 -- -- 92
2017-08-27 23:00:00 18.8 0 Calma 5 Norte 0 -- -- 90
2017-08-27 22:00:00 19.7 2 Oeste 14 Sudoeste 0 -- -- 90
2017-08-27 21:00:00 20.5 3 Oeste 12 Sudoeste 0 -- -- 88
2017-08-27 20:00:00 21 5 Sur 19 Noroeste 0 -- -- 86
2017-08-27 19:00:00 20.5 13 Noroeste 27 Noroeste 0.2 -- -- 87
2017-08-27 18:00:00 20.8 14 Noroeste 35 Oeste 0.4 -- -- 87
2017-08-27 17:00:00 22.9 19 Oeste 33 Oeste 0.4 -- -- 78
2017-08-27 16:00:00 26.2 2 Noroeste 15 Sur 0.2 -- -- 72
2017-08-27 15:00:00 27.3 10 Sudeste 24 Sudeste 0 -- -- 61
2017-08-27 14:00:00 26.8 16 Sudeste 27 Sudeste 0 -- -- 62
2017-08-27 13:00:00 26.9 10 Sudeste 17 Sudeste 0 -- -- 65
2017-08-27 12:00:00 26.9 11 Este 20 Nordeste 0 -- -- 64
2017-08-27 11:00:00 22.9 5 Nordeste 17 Nordeste 0 -- -- 80
2017-08-27 10:00:00 22.5 5 Este 8 Este 0 -- -- 79
2017-08-27 09:00:00 22 0 Calma 10 Sur 0 -- -- 80
2017-08-27 08:00:00 20.2 4 Este 15 Este 0 -- -- 85
2017-08-27 07:00:00 20.2 9 Sudeste 17 Nordeste 0 -- -- 83
2017-08-27 06:00:00 20.7 10 Nordeste 16 Nordeste 0 -- -- 80
2017-08-27 05:00:00 20.8 11 Nordeste 17 Nordeste 0.2 -- -- 84
2017-08-27 04:00:00 21.8 8 Este 18 Este 0 -- -- 76
2017-08-27 03:00:00 21.1 12 Este 17 Este 0 -- -- 82
2017-08-27 02:00:00 21.4 5 Nordeste 11 Noroeste 0 -- -- 81
2017-08-27 01:00:00 21.4 3 Noroeste 8 Nordeste 0 -- -- 81
2017-08-27 00:00:00 22.6 7 Nordeste 14 Este 0 -- -- 77
2017-08-26 23:00:00 24.1 10 Nordeste 21 Nordeste 0 -- -- 72
2017-08-26 22:00:00 25.2 10 Nordeste 18 Nordeste 0.2 -- -- 66
2017-08-26 21:00:00 26.5 9 Sudeste 18 Sudeste 0 -- -- 62
2017-08-26 20:00:00 27.7 10 Este 23 Sudeste 0 -- -- 55
2017-08-26 19:00:00 29.7 9 Este 21 Sudeste 0 -- -- 49
2017-08-26 18:00:00 31.6 9 Este 24 Sudeste 0 -- -- 42
2017-08-26 17:00:00 31.2 16 Sudeste 27 Sudeste 0 -- -- 49
2017-08-26 16:00:00 30.8 14 Sudeste 24 Sudeste 0 -- -- 49
2017-08-26 15:00:00 30.7 15 Sudeste 27 Sudeste 0 -- -- 47
2017-08-26 14:00:00 28.8 13 Sudeste 24 Sudeste 0 -- -- 52
2017-08-26 13:00:00 28.2 15 Sudeste 28 Sudeste 0 -- -- 52
2017-08-26 12:00:00 26.4 15 Este 30 Este 0 -- -- 56
2017-08-26 11:00:00 25.2 21 Este 35 Este 0 -- -- 57
2017-08-26 10:00:00 23.1 18 Este 30 Este 0 -- -- 62
2017-08-26 09:00:00 20.6 18 Este 26 Este 0 -- -- 69
2017-08-26 08:00:00 18.8 18 Este 29 Nordeste 0 -- -- 74
2017-08-26 07:00:00 18.5 14 Este 24 Este 0 -- -- 74
2017-08-26 06:00:00 19.1 12 Este 25 Este 0 -- -- 71
2017-08-26 05:00:00 20.3 18 Sudeste 31 Sudeste 0 -- -- 65
2017-08-26 04:00:00 19.7 17 Sudeste 21 Sudeste 0 -- -- 75
2017-08-26 03:00:00 19.5 13 Este 20 Este 0 -- -- 75
2017-08-26 02:00:00 20.7 11 Sudeste 24 Este 0 -- -- 70
2017-08-26 01:00:00 22.9 14 Este 26 Este 0 -- -- 57
2017-08-26 00:00:00 23.1 18 Este 28 Este 0 -- -- 65